Time;durP1;ratioP1;P1;durP2;ratioP2;P2;SDS_P1;SDS_P2;PMS_P1;PMS_P2;Temp;Humidity;BMP_temperature;BMP_pressure;BME280_temperature;BME280_humidity;BME280_pressure;Samples;Min_cycle;Max_cycle;Signal;HPM_P1;HPM_P2
2022/10/30 00:00:28;;;;;;;;;;;;;;;25.47;47.07;94798.91;4895751;29;9036;-59
2022/10/30 00:03:39;;;;;;;;;;;;;;;25.47;48.04;94793.38;4847885;29;9391;-60
2022/10/30 00:06:35;;;;;;;;;;;;;;;25.47;47.39;94796.16;4821500;29;7735;-59
2022/10/30 00:09:28;;;;;;;;;;;;;;;25.45;48.00;94793.88;5131324;27;7378;-58
2022/10/30 00:11:54;;;;;;;;;;;;;;;25.45;47.39;94796.63;5088962;28;9433;-58
2022/10/30 00:14:20;;;;;;;;;;;;;;;25.45;47.52;94796.63;5089700;28;7262;-58
2022/10/30 00:16:58;;;;;;;;;;;;;;;25.44;47.88;94795.13;5089520;28;7289;-58
2022/10/30 00:19:29;;;;;;;;;;;;;;;25.45;47.70;94793.88;5089707;28;7167;-58
2022/10/30 00:21:56;;;;;;;;;;;;;;;25.44;47.79;94789.63;5109485;28;7239;-58
2022/10/30 00:24:22;;;;;;;;;;;;;;;25.44;47.94;94786.88;5089117;28;7182;-57
2022/10/30 00:26:55;;;;;;;;;;;;;;;25.46;47.06;94787.13;5106972;28;6975;-58
2022/10/30 00:29:28;;;;;;;;;;;;;;;25.43;47.24;94777.84;5092036;28;7240;-57
2022/10/30 00:32:02;;;;;;;;;;;;;;;25.45;48.20;94782.13;5090793;28;7234;-57
2022/10/30 00:34:37;;;;;;;;;;;;;;;25.44;47.25;94786.88;5091603;28;7320;-58
2022/10/30 00:37:15;;;;;;;;;;;;;;;25.43;47.56;94780.59;5095586;28;9145;-58
2022/10/30 00:39:53;;;;;;;;;;;;;;;25.43;47.99;94771.59;5087042;28;9410;-58
2022/10/30 00:42:20;;;;;;;;;;;;;;;25.42;48.12;94773.59;5089162;28;7315;-58
2022/10/30 00:44:53;;;;;;;;;;;;;;;25.41;47.58;94766.56;5107546;28;7434;-58
2022/10/30 00:47:42;;;;;;;;;;;;;;;25.40;48.20;94772.59;5093763;28;7152;-58
2022/10/30 00:50:12;;;;;;;;;;;;;;;25.42;47.39;94773.59;5089837;28;7291;-58
2022/10/30 00:52:50;;;;;;;;;;;;;;;25.41;47.75;94771.31;5101866;28;7563;-58
2022/10/30 00:55:31;;;;;;;;;;;;;;;25.41;47.36;94774.06;5109052;28;7088;-58
2022/10/30 00:58:06;;;;;;;;;;;;;;;25.38;47.24;94767.56;5092227;28;8567;-58
2022/10/30 01:00:45;;;;;;;;;;;;;;;25.40;48.19;94773.31;5097444;28;7216;-58
2022/10/30 01:03:12;;;;;;;;;;;;;;;25.40;47.39;94778.09;5097424;28;8929;-58
2022/10/30 01:05:41;;;;;;;;;;;;;;;25.40;47.13;94773.31;5101607;28;7360;-58
2022/10/30 01:08:07;;;;;;;;;;;;;;;25.39;47.35;94771.06;5105773;28;9128;-58
2022/10/30 01:10:37;;;;;;;;;;;;;;;25.38;47.86;94764.81;5095424;28;7183;-58
2022/10/30 01:13:04;;;;;;;;;;;;;;;25.40;48.09;94761.56;5121553;28;9475;-58
2022/10/30 01:15:37;;;;;;;;;;;;;;;25.40;47.90;94767.06;5099990;28;9039;-58
2022/10/30 01:18:42;;;;;;;;;;;;;;;25.39;47.12;94762.81;5125058;28;7086;-58
2022/10/30 01:22:02;;;;;;;;;;;;;;;25.39;47.60;94760.81;5089518;28;7378;-58
2022/10/30 01:25:07;;;;;;;;;;;;;;;25.38;48.20;94759.28;5033389;28;7241;-58
2022/10/30 01:27:53;;;;;;;;;;;;;;;25.39;47.78;94755.31;5033374;28;7854;-58
2022/10/30 01:30:58;;;;;;;;;;;;;;;25.38;47.60;94755.81;5017159;28;7274;-58
2022/10/30 01:33:45;;;;;;;;;;;;;;;25.36;47.23;94752.78;5032266;28;7316;-58
2022/10/30 01:36:35;;;;;;;;;;;;;;;25.36;47.16;94759.03;5016853;28;6979;-58
2022/10/30 01:39:40;;;;;;;;;;;;;;;25.36;47.96;94747.28;5033224;28;7345;-57
2022/10/30 01:42:43;;;;;;;;;;;;;;;25.35;48.13;94740.28;4953178;28;7562;-58
2022/10/30 01:45:20;;;;;;;;;;;;;;;25.35;47.89;94732.03;4951770;28;7223;-58
2022/10/30 01:48:05;;;;;;;;;;;;;;;25.34;47.65;94736.00;4933361;28;6989;-57
2022/10/30 01:51:10;;;;;;;;;;;;;;;25.35;47.64;94726.50;4951689;28;9352;-58
2022/10/30 01:54:08;;;;;;;;;;;;;;;25.33;47.54;94729.00;4954042;28;8980;-58
2022/10/30 01:57:07;;;;;;;;;;;;;;;25.35;47.73;94726.50;4931254;29;7264;-58
2022/10/30 01:59:52;;;;;;;;;;;;;;;25.34;47.90;94723.00;4971263;28;7253;-58
2022/10/30 02:02:23;;;;;;;;;;;;;;;25.34;48.09;94727.75;5027108;28;9441;-58
2022/10/30 02:04:52;;;;;;;;;;;;;;;25.33;47.31;94727.03;5029528;28;9251;-57
2022/10/30 02:07:21;;;;;;;;;;;;;;;25.34;47.17;94722.25;4998650;28;7088;-58
2022/10/30 02:09:51;;;;;;;;;;;;;;;25.32;47.49;94717.25;5013097;28;7247;-58
2022/10/30 02:12:22;;;;;;;;;;;;;;;25.33;47.25;94715.25;5026475;28;7191;-58
2022/10/30 02:14:53;;;;;;;;;;;;;;;25.34;47.07;94717.50;5025179;28;7023;-58
2022/10/30 02:17:23;;;;;;;;;;;;;;;25.34;47.38;94705.72;5089695;28;9833;-58
2022/10/30 02:19:51;;;;;;;;;;;;;;;25.33;47.71;94707.00;5079585;28;10154;-58
2022/10/30 02:22:51;;;;;;;;;;;;;;;25.34;47.24;94700.22;5082435;28;9539;-58
2022/10/30 02:25:34;;;;;;;;;;;;;;;25.31;47.52;94698.47;5001049;28;9040;-58
2022/10/30 02:28:32;;;;;;;;;;;;;;;25.33;47.89;94702.25;4996347;28;9060;-58
2022/10/30 02:31:44;;;;;;;;;;;;;;;25.32;47.83;94699.97;4955430;28;8154;-57
2022/10/30 02:34:09;;;;;;;;;;;;;;;25.33;47.08;94693.22;4919531;29;9345;-58
2022/10/30 02:36:37;;;;;;;;;;;;;;;25.33;47.66;94696.72;4913710;29;7222;-58
2022/10/30 02:39:05;;;;;;;;;;;;;;;25.33;47.65;94690.47;4915619;29;7110;-58
2022/10/30 02:41:33;;;;;;;;;;;;;;;25.35;47.00;94701.72;4915107;29;7382;-57
2022/10/30 02:44:19;;;;;;;;;;;;;;;25.34;46.98;94698.22;4915862;29;7102;-57
2022/10/30 02:46:45;;;;;;;;;;;;;;;25.33;47.09;94696.72;4898423;29;7174;-58
2022/10/30 02:49:21;;;;;;;;;;;;;;;25.33;47.31;94695.97;4888223;29;8941;-58
2022/10/30 02:51:55;;;;;;;;;;;;;;;25.30;47.15;94697.72;4904854;29;8926;-58
2022/10/30 02:54:24;;;;;;;;;;;;;;;25.31;46.97;94701.25;4915151;29;7275;-58
2022/10/30 02:56:51;;;;;;;;;;;;;;;25.32;47.05;94702.72;4915314;29;7221;-58
2022/10/30 02:59:46;;;;;;;;;;;;;;;25.33;47.08;94701.47;4918816;29;7458;-58
2022/10/30 03:02:14;;;;;;;;;;;;;;;25.31;47.57;94706.75;4899715;29;7092;-58
2022/10/30 03:04:41;;;;;;;;;;;;;;;25.32;46.87;94716.50;4914907;29;7523;-58
2022/10/30 03:07:16;;;;;;;;;;;;;;;25.33;47.15;94695.97;4955426;28;6987;-58
2022/10/30 03:09:42;;;;;;;;;;;;;;;25.32;47.03;94711.75;4970751;28;7006;-58
2022/10/30 03:12:08;;;;;;;;;;;;;;;25.32;47.57;94691.72;5017632;28;7279;-58
2022/10/30 03:14:34;;;;;;;;;;;;;;;25.34;47.15;94695.47;5030567;28;7060;-57
2022/10/30 03:17:31;;;;;;;;;;;;;;;25.34;47.00;94687.22;5030175;28;7272;-58
2022/10/30 03:19:57;;;;;;;;;;;;;;;25.34;47.54;94695.47;4973691;28;7453;-58
2022/10/30 03:22:23;;;;;;;;;;;;;;;25.33;47.06;94693.97;4990852;28;7834;-58
2022/10/30 03:24:49;;;;;;;;;;;;;;;25.32;47.48;94700.72;4977501;28;7178;-59
2022/10/30 03:27:16;;;;;;;;;;;;;;;25.32;46.83;94697.22;4971351;28;8859;-58
2022/10/30 03:29:57;;;;;;;;;;;;;;;25.32;47.49;94699.97;4992695;28;7389;-58
2022/10/30 03:32:56;;;;;;;;;;;;;;;25.32;47.53;94699.97;4986651;28;8609;-58
2022/10/30 03:35:33;;;;;;;;;;;;;;;25.31;47.34;94699.25;4936994;28;9377;-58
2022/10/30 03:38:11;;;;;;;;;;;;;;;25.31;47.36;94690.97;4940983;28;7145;-58
2022/10/30 03:40:46;;;;;;;;;;;;;;;25.32;46.92;94697.22;4955352;28;9028;-58
2022/10/30 03:43:14;;;;;;;;;;;;;;;25.29;46.64;94698.97;4956530;28;7397;-58
2022/10/30 03:45:46;;;;;;;;;;;;;;;25.30;47.12;94692.22;4972327;28;8506;-58
2022/10/30 03:48:12;;;;;;;;;;;;;;;25.30;46.83;94691.47;4972184;28;8221;-59
2022/10/30 03:50:42;;;;;;;;;;;;;;;25.30;46.94;94696.97;4954132;28;9404;-58
2022/10/30 03:53:09;;;;;;;;;;;;;;;25.30;47.01;94700.47;4971555;28;7574;-58
2022/10/30 03:55:35;;;;;;;;;;;;;;;25.31;47.27;94699.25;4967551;28;7606;-58
2022/10/30 03:58:20;;;;;;;;;;;;;;;25.31;47.12;94696.50;5003176;28;9253;-59
2022/10/30 04:00:47;;;;;;;;;;;;;;;25.29;46.64;94698.25;4994660;28;7211;-58
2022/10/30 04:03:21;;;;;;;;;;;;;;;25.29;47.00;94701.00;5025552;28;9110;-58
2022/10/30 04:05:51;;;;;;;;;;;;;;;25.26;46.92;94701.97;5004853;28;7917;-58
2022/10/30 04:08:20;;;;;;;;;;;;;;;25.24;46.73;94708.00;5002420;28;7114;-58
2022/10/30 04:10:53;;;;;;;;;;;;;;;25.22;47.16;94698.72;5000057;28;7234;-58
2022/10/30 04:13:47;;;;;;;;;;;;;;;25.20;47.54;94704.75;5083940;28;7331;-58
2022/10/30 04:16:15;;;;;;;;;;;;;;;25.17;47.55;94710.47;4997223;28;7221;-59
2022/10/30 04:18:50;;;;;;;;;;;;;;;25.15;47.31;94699.22;4994526;28;7058;-58
2022/10/30 04:21:26;;;;;;;;;;;;;;;25.15;47.39;94701.97;5023364;28;8623;-58
2022/10/30 04:23:52;;;;;;;;;;;;;;;25.15;47.39;94711.00;5014701;28;7349;-58
2022/10/30 04:26:27;;;;;;;;;;;;;;;25.12;47.48;94703.72;5024708;28;9562;-58
2022/10/30 04:29:14;;;;;;;;;;;;;;;25.14;46.91;94712.22;5021611;28;8965;-58
2022/10/30 04:31:40;;;;;;;;;;;;;;;25.10;46.51;94708.25;5005933;28;7786;-58
2022/10/30 04:34:24;;;;;;;;;;;;;;;25.12;46.86;94709.22;5010918;28;7630;-58
2022/10/30 04:37:01;;;;;;;;;;;;;;;25.09;46.91;94703.97;5023836;28;7175;-59
2022/10/30 04:39:40;;;;;;;;;;;;;;;25.11;46.95;94709.75;5023020;28;7187;-59
2022/10/30 04:42:15;;;;;;;;;;;;;;;25.11;46.98;94707.00;5029726;28;7040;-58
2022/10/30 04:44:42;;;;;;;;;;;;;;;25.09;46.72;94699.25;5021545;28;7136;-58
2022/10/30 04:47:38;;;;;;;;;;;;;;;25.11;46.97;94701.47;5030648;28;7244;-58
2022/10/30 04:50:06;;;;;;;;;;;;;;;25.09;47.20;94704.75;4971733;28;9431;-58
2022/10/30 04:53:10;;;;;;;;;;;;;;;25.10;47.31;94700.00;4984897;28;7097;-58
2022/10/30 04:56:09;;;;;;;;;;;;;;;25.09;47.19;94702.00;5036972;28;7272;-58
2022/10/30 04:58:48;;;;;;;;;;;;;;;25.09;47.03;94698.47;4955819;28;7145;-59
2022/10/30 05:01:22;;;;;;;;;;;;;;;25.07;46.65;94699.00;4970101;28;9277;-58
2022/10/30 05:03:59;;;;;;;;;;;;;;;25.08;46.65;94699.72;4955257;28;6986;-58
2022/10/30 05:06:56;;;;;;;;;;;;;;;25.08;46.69;94699.72;4955559;28;7424;-58
2022/10/30 05:09:22;;;;;;;;;;;;;;;25.07;46.53;94701.75;4977629;28;7013;-59
2022/10/30 05:11:48;;;;;;;;;;;;;;;25.07;46.52;94692.72;4990240;28;9494;-59
2022/10/30 05:14:14;;;;;;;;;;;;;;;25.07;46.31;94693.47;4976018;28;7215;-59
2022/10/30 05:16:42;;;;;;;;;;;;;;;25.05;46.40;94690.47;4994437;28;7281;-59
2022/10/30 05:19:12;;;;;;;;;;;;;;;25.06;47.02;94691.22;4977877;28;7441;-59
2022/10/30 05:21:53;;;;;;;;;;;;;;;25.06;46.50;94688.47;4961025;28;7243;-58
2022/10/30 05:24:21;;;;;;;;;;;;;;;25.03;46.27;94690.22;4977356;28;9120;-58
2022/10/30 05:26:47;;;;;;;;;;;;;;;25.04;46.44;94691.72;4965222;28;7266;-59
2022/10/30 05:29:18;;;;;;;;;;;;;;;25.04;46.31;94680.72;4956573;28;7275;-59
2022/10/30 05:31:46;;;;;;;;;;;;;;;25.05;46.71;94682.22;4955403;28;6997;-59
2022/10/30 05:34:22;;;;;;;;;;;;;;;25.03;46.87;94687.47;4993024;28;7465;-59
2022/10/30 05:37:00;;;;;;;;;;;;;;;25.03;46.13;94684.72;5009600;28;7127;-59
2022/10/30 05:39:57;;;;;;;;;;;;;;;25.05;46.30;94684.22;5005990;28;7148;-59
2022/10/30 05:42:23;;;;;;;;;;;;;;;25.03;46.72;94681.97;4974803;28;8978;-59
2022/10/30 05:44:49;;;;;;;;;;;;;;;25.05;46.00;94678.72;4997560;28;7064;-59
2022/10/30 05:47:24;;;;;;;;;;;;;;;25.04;46.23;94683.47;5027005;28;7189;-58
2022/10/30 05:49:51;;;;;;;;;;;;;;;25.03;46.21;94689.47;5026337;28;7490;-58
2022/10/30 05:52:18;;;;;;;;;;;;;;;25.03;46.38;94695.75;5035092;28;8917;-58
2022/10/30 05:54:51;;;;;;;;;;;;;;;25.04;46.02;94686.22;5035839;28;9301;-59
2022/10/30 05:57:37;;;;;;;;;;;;;;;25.04;46.64;94686.22;5050508;28;6861;-59
2022/10/30 06:00:36;;;;;;;;;;;;;;;25.05;46.95;94689.72;5036191;28;8468;-59
2022/10/30 06:03:10;;;;;;;;;;;;;;;25.04;46.59;94690.97;4999923;28;8543;-58
2022/10/30 06:05:37;;;;;;;;;;;;;;;25.02;46.52;94690.72;5021129;28;9305;-58
2022/10/30 06:08:07;;;;;;;;;;;;;;;25.00;46.69;94684.97;5011372;28;9129;-59
2022/10/30 06:10:33;;;;;;;;;;;;;;;25.00;46.35;94695.97;5021034;28;8833;-59
2022/10/30 06:13:01;;;;;;;;;;;;;;;24.97;46.70;94685.97;5014235;28;9015;-59
2022/10/30 06:15:44;;;;;;;;;;;;;;;25.00;46.70;94702.22;5003727;28;7246;-58
2022/10/30 06:18:14;;;;;;;;;;;;;;;24.99;46.18;94695.22;5028747;28;8504;-58
2022/10/30 06:20:41;;;;;;;;;;;;;;;24.91;46.69;94688.72;5055517;28;7227;-59
2022/10/30 06:23:09;;;;;;;;;;;;;;;24.91;46.82;94698.97;5049744;28;8558;-59
2022/10/30 06:25:42;;;;;;;;;;;;;;;24.92;46.34;94703.22;5041569;28;7550;-59
2022/10/30 06:28:12;;;;;;;;;;;;;;;24.93;46.59;94699.22;5044139;28;7270;-59
2022/10/30 06:30:47;;;;;;;;;;;;;;;24.95;46.78;94699.47;5052432;28;6961;-59
2022/10/30 06:33:47;;;;;;;;;;;;;;;24.95;46.88;94696.72;5053135;28;7249;-58
2022/10/30 06:36:22;;;;;;;;;;;;;;;24.95;45.90;94693.94;5008424;28;7341;-58
2022/10/30 06:39:14;;;;;;;;;;;;;;;24.97;46.77;94697.72;5020661;28;7648;-58
2022/10/30 06:41:52;;;;;;;;;;;;;;;24.97;46.21;94697.72;5025520;28;9574;-59
2022/10/30 06:44:19;;;;;;;;;;;;;;;24.97;46.14;94694.22;5051348;28;9108;-59
2022/10/30 06:46:57;;;;;;;;;;;;;;;24.96;46.35;94696.22;5025265;28;7096;-59
2022/10/30 06:49:37;;;;;;;;;;;;;;;25.00;46.28;94701.47;5042724;28;8897;-59
2022/10/30 06:52:24;;;;;;;;;;;;;;;25.00;45.93;94702.22;5031424;28;9080;-59
2022/10/30 06:55:05;;;;;;;;;;;;;;;25.03;45.82;94694.97;5032901;28;9156;-59
2022/10/30 06:57:31;;;;;;;;;;;;;;;25.04;45.85;94701.97;5022554;28;7064;-59
2022/10/30 07:00:28;;;;;;;;;;;;;;;25.02;46.16;94704.47;5021406;28;7123;-59
2022/10/30 07:03:07;;;;;;;;;;;;;;;24.99;46.08;94705.50;4971295;28;9096;-59
2022/10/30 07:05:48;;;;;;;;;;;;;;;24.98;46.38;94706.72;4976682;28;7314;-59
2022/10/30 07:08:14;;;;;;;;;;;;;;;24.93;46.43;94708.22;4984174;28;7278;-59
2022/10/30 07:10:42;;;;;;;;;;;;;;;24.90;46.61;94714.75;4974792;28;7296;-59
2022/10/30 07:13:08;;;;;;;;;;;;;;;24.89;46.30;94710.47;5013908;28;8824;-59
2022/10/30 07:16:05;;;;;;;;;;;;;;;24.88;46.71;94706.22;5030412;28;7029;-59
2022/10/30 07:18:40;;;;;;;;;;;;;;;24.84;46.92;94707.72;5010384;28;7375;-59
2022/10/30 07:21:16;;;;;;;;;;;;;;;24.81;47.07;94711.47;5004400;28;9214;-59
2022/10/30 07:23:44;;;;;;;;;;;;;;;24.77;46.95;94710.97;5002135;28;7314;-59
2022/10/30 07:26:19;;;;;;;;;;;;;;;24.78;47.00;94715.94;5008303;28;7071;-59
2022/10/30 07:28:55;;;;;;;;;;;;;;;24.83;46.28;94715.22;5001769;28;7459;-59
2022/10/30 07:31:21;;;;;;;;;;;;;;;24.87;47.24;94712.22;5009519;28;7277;-59
2022/10/30 07:34:02;;;;;;;;;;;;;;;24.87;46.70;94709.47;5007314;28;9102;-59
2022/10/30 07:36:43;;;;;;;;;;;;;;;24.88;46.43;94705.47;5008523;28;8789;-59
2022/10/30 07:39:18;;;;;;;;;;;;;;;24.93;45.87;94707.47;5004627;28;8237;-59
2022/10/30 07:42:21;;;;;;;;;;;;;;;24.96;46.85;94709.22;5025423;28;8996;-59
2022/10/30 07:44:48;;;;;;;;;;;;;;;24.96;46.14;94711.97;5014415;28;6984;-58
2022/10/30 07:47:22;;;;;;;;;;;;;;;24.96;46.36;94718.25;5012586;28;7194;-59
2022/10/30 07:50:21;;;;;;;;;;;;;;;24.94;46.65;94720.75;4997168;28;7116;-59
2022/10/30 07:52:57;;;;;;;;;;;;;;;24.94;46.06;94711.72;4992804;28;7483;-59
2022/10/30 07:55:24;;;;;;;;;;;;;;;24.93;46.77;94715.72;5007560;28;8705;-59
2022/10/30 07:58:02;;;;;;;;;;;;;;;24.91;46.63;94713.47;5028241;28;7564;-59
2022/10/30 08:00:38;;;;;;;;;;;;;;;24.94;46.24;94715.25;5019183;28;7032;-59
2022/10/30 08:03:09;;;;;;;;;;;;;;;24.95;46.18;94715.97;5007044;28;7315;-59
2022/10/30 08:06:06;;;;;;;;;;;;;;;24.94;46.65;94714.47;5029040;28;9282;-59
2022/10/30 08:08:32;;;;;;;;;;;;;;;24.93;46.06;94712.97;4970149;28;8875;-59
2022/10/30 08:11:00;;;;;;;;;;;;;;;24.85;46.03;94707.22;4971093;28;9574;-59
2022/10/30 08:13:28;;;;;;;;;;;;;;;24.87;46.73;94712.22;4951831;29;7204;-60
2022/10/30 08:16:03;;;;;;;;;;;;;;;24.88;46.94;94724.72;4961759;28;7323;-60
2022/10/30 08:18:41;;;;;;;;;;;;;;;24.85;46.01;94722.97;4968571;28;9036;-60
2022/10/30 08:21:15;;;;;;;;;;;;;;;24.81;46.23;94734.22;4996182;28;8736;-60
2022/10/30 08:23:42;;;;;;;;;;;;;;;24.89;46.63;94731.72;5004741;28;7225;-60
2022/10/30 08:26:24;;;;;;;;;;;;;;;24.90;45.99;94731.25;5007647;28;7559;-60
2022/10/30 08:28:59;;;;;;;;;;;;;;;24.86;46.57;94735.50;5004428;28;7249;-60
2022/10/30 08:31:25;;;;;;;;;;;;;;;24.88;46.17;94724.72;5005384;28;7797;-60
2022/10/30 08:33:56;;;;;;;;;;;;;;;24.89;46.47;94731.72;4993167;28;8282;-59
2022/10/30 08:36:22;;;;;;;;;;;;;;;24.94;46.31;94736.50;4992405;28;7362;-60
2022/10/30 08:38:50;;;;;;;;;;;;;;;24.94;46.34;94731.00;5004390;28;6995;-60
2022/10/30 08:41:15;;;;;;;;;;;;;;;24.93;46.78;94730.22;4985308;28;7307;-60
2022/10/30 08:43:52;;;;;;;;;;;;;;;24.91;46.34;94718.97;5003166;28;7410;-59
2022/10/30 08:46:25;;;;;;;;;;;;;;;24.93;46.23;94718.47;5082470;28;7251;-60
2022/10/30 08:48:54;;;;;;;;;;;;;;;24.94;45.98;94718.00;5082199;28;9824;-59
2022/10/30 08:51:23;;;;;;;;;;;;;;;24.95;46.25;94716.72;5081001;28;9001;-60
2022/10/30 08:53:49;;;;;;;;;;;;;;;24.96;46.65;94723.75;5100110;28;9393;-60
2022/10/30 08:56:16;;;;;;;;;;;;;;;24.98;46.86;94718.50;5081359;28;9397;-61
2022/10/30 08:58:42;;;;;;;;;;;;;;;25.02;46.13;94718.22;5081473;28;7134;-60
2022/10/30 09:01:14;;;;;;;;;;;;;;;25.01;47.30;94725.00;5075977;28;7608;-60
2022/10/30 09:03:49;;;;;;;;;;;;;;;24.98;48.08;94714.97;5076744;28;7199;-61
2022/10/30 09:06:17;;;;;;;;;;;;;;;24.98;47.70;94713.00;5088031;28;6981;-60
2022/10/30 09:08:45;;;;;;;;;;;;;;;24.98;47.32;94712.22;5094483;28;7342;-60
2022/10/30 09:11:11;;;;;;;;;;;;;;;24.99;46.98;94722.72;5087846;28;7048;-60
2022/10/30 09:13:37;;;;;;;;;;;;;;;25.00;46.77;94721.50;5087875;28;7251;-60
2022/10/30 09:16:04;;;;;;;;;;;;;;;25.01;47.31;94719.50;5086224;28;7196;-60
2022/10/30 09:18:32;;;;;;;;;;;;;;;25.02;47.39;94720.97;5081165;28;7261;-60
2022/10/30 09:21:01;;;;;;;;;;;;;;;25.00;47.45;94720.72;5084752;28;7291;-61
2022/10/30 09:23:29;;;;;;;;;;;;;;;25.01;46.60;94722.25;5074922;28;8586;-60
2022/10/30 09:25:58;;;;;;;;;;;;;;;25.02;46.64;94712.72;5082261;28;9488;-60
2022/10/30 09:28:24;;;;;;;;;;;;;;;24.98;46.56;94713.00;5089970;27;7071;-60
2022/10/30 09:30:55;;;;;;;;;;;;;;;24.98;46.85;94724.00;5082291;28;7464;-60
2022/10/30 09:33:23;;;;;;;;;;;;;;;24.99;46.30;94719.97;5080515;28;7251;-60
2022/10/30 09:35:49;;;;;;;;;;;;;;;25.00;46.43;94723.50;5085443;28;7071;-60
2022/10/30 09:38:22;;;;;;;;;;;;;;;25.00;46.85;94726.25;5082583;28;7486;-59
2022/10/30 09:41:25;;;;;;;;;;;;;;;25.00;46.71;94729.00;5075040;28;6989;-60
2022/10/30 09:44:21;;;;;;;;;;;;;;;24.99;47.18;94722.72;5073087;28;7160;-61
2022/10/30 09:46:57;;;;;;;;;;;;;;;24.97;47.23;94725.22;5071900;28;7129;-61
2022/10/30 09:49:50;;;;;;;;;;;;;;;24.94;47.32;94722.72;5076697;28;7151;-60
2022/10/30 09:52:58;;;;;;;;;;;;;;;24.93;47.54;94738.50;5092302;27;7292;-61
2022/10/30 09:56:12;;;;;;;;;;;;;;;24.94;47.00;94737.25;5095262;28;7231;-60
2022/10/30 09:59:10;;;;;;;;;;;;;;;24.95;47.52;94737.97;5074746;28;7127;-61
2022/10/30 10:01:50;;;;;;;;;;;;;;;24.97;47.47;94735.50;5084670;28;9365;-61
2022/10/30 10:04:57;;;;;;;;;;;;;;;24.97;47.67;94736.25;5086294;28;8501;-61
2022/10/30 10:07:30;;;;;;;;;;;;;;;24.96;47.42;94734.75;5077850;28;7460;-61
2022/10/30 10:10:05;;;;;;;;;;;;;;;24.97;47.09;94738.25;5081470;28;7428;-61
2022/10/30 10:12:47;;;;;;;;;;;;;;;24.98;47.43;94737.00;5072897;28;7442;-61
2022/10/30 10:15:45;;;;;;;;;;;;;;;25.00;47.59;94740.00;5079630;28;7228;-61
2022/10/30 10:18:23;;;;;;;;;;;;;;;25.02;47.41;94732.00;5083007;28;9407;-61
2022/10/30 10:20:54;;;;;;;;;;;;;;;25.02;46.53;94743.00;5081089;28;7374;-61
2022/10/30 10:23:47;;;;;;;;;;;;;;;25.03;46.97;94725.25;5082871;28;7165;-61
2022/10/30 10:26:30;;;;;;;;;;;;;;;25.02;47.43;94732.00;5095610;28;7003;-61
2022/10/30 10:29:10;;;;;;;;;;;;;;;25.02;47.17;94732.00;5081556;28;7317;-61
2022/10/30 10:32:20;;;;;;;;;;;;;;;24.99;47.31;94735.75;5093515;28;7515;-61
2022/10/30 10:35:19;;;;;;;;;;;;;;;24.99;47.19;94728.22;5010741;28;8956;-61
2022/10/30 10:37:52;;;;;;;;;;;;;;;24.98;46.88;94734.25;5028812;28;8783;-61
2022/10/30 10:40:33;;;;;;;;;;;;;;;24.97;46.76;94727.25;5013019;28;7183;-61
2022/10/30 10:43:36;;;;;;;;;;;;;;;24.97;47.70;94732.75;5029132;28;7290;-61
2022/10/30 10:46:25;;;;;;;;;;;;;;;24.99;47.60;94724.75;5027760;28;7234;-61
2022/10/30 10:49:40;;;;;;;;;;;;;;;24.99;46.62;94722.00;5012102;28;7270;-61
2022/10/30 10:52:36;;;;;;;;;;;;;;;24.99;47.37;94722.72;5027578;28;9740;-61
2022/10/30 10:55:43;;;;;;;;;;;;;;;25.00;47.49;94729.00;4946332;28;8459;-61
2022/10/30 10:58:40;;;;;;;;;;;;;;;25.01;46.59;94728.47;4931989;28;9441;-61
2022/10/30 11:01:35;;;;;;;;;;;;;;;25.00;46.76;94717.97;4935649;28;8496;-60
2022/10/30 11:04:38;;;;;;;;;;;;;;;25.01;46.68;94722.25;4952396;28;9085;-61
2022/10/30 11:07:24;;;;;;;;;;;;;;;25.04;46.67;94718.47;4939691;28;7208;-60
2022/10/30 11:09:55;;;;;;;;;;;;;;;25.04;46.55;94715.72;4927409;29;7285;-61
2022/10/30 11:12:50;;;;;;;;;;;;;;;25.07;47.36;94712.75;4983285;28;9314;-60
2022/10/30 11:15:36;;;;;;;;;;;;;;;25.06;46.51;94710.47;4937651;28;8754;-60
2022/10/30 11:18:08;;;;;;;;;;;;;;;25.06;47.02;94710.47;4951974;28;9363;-60
2022/10/30 11:20:58;;;;;;;;;;;;;;;25.08;46.35;94721.72;4957449;28;7273;-60
2022/10/30 11:23:41;;;;;;;;;;;;;;;25.09;47.08;94709.50;4950444;28;9506;-60
2022/10/30 11:26:16;;;;;;;;;;;;;;;25.04;46.87;94702.72;4950797;28;9033;-60
2022/10/30 11:28:57;;;;;;;;;;;;;;;25.04;47.31;94707.47;4948544;28;7538;-60
2022/10/30 11:31:34;;;;;;;;;;;;;;;25.02;47.47;94698.97;4959758;28;7116;-60
2022/10/30 11:34:22;;;;;;;;;;;;;;;25.02;47.37;94704.47;4972425;28;7256;-60
2022/10/30 11:36:53;;;;;;;;;;;;;;;24.98;48.35;94699.22;4986295;28;7242;-60
2022/10/30 11:39:33;;;;;;;;;;;;;;;24.96;48.37;94712.75;4974061;28;7147;-60
2022/10/30 11:42:18;;;;;;;;;;;;;;;24.97;48.51;94708.00;4986229;28;9533;-60
2022/10/30 11:44:56;;;;;;;;;;;;;;;24.95;48.74;94704.97;4989849;28;7489;-60
2022/10/30 11:47:37;;;;;;;;;;;;;;;24.94;48.52;94700.72;4991067;28;7437;-60
2022/10/30 11:50:32;;;;;;;;;;;;;;;24.94;48.15;94704.22;4974618;28;7438;-60
2022/10/30 11:53:15;;;;;;;;;;;;;;;24.93;48.51;94699.97;5078821;28;7263;-60
2022/10/30 11:55:51;;;;;;;;;;;;;;;24.91;48.75;94690.69;5082959;28;8639;-60
2022/10/30 11:58:39;;;;;;;;;;;;;;;24.94;48.41;94697.97;5079155;28;9110;-60
2022/10/30 12:01:30;;;;;;;;;;;;;;;24.94;47.88;94689.72;5075892;28;8442;-60
2022/10/30 12:04:13;;;;;;;;;;;;;;;24.98;47.85;94695.72;5095582;28;7034;-60
2022/10/30 12:06:48;;;;;;;;;;;;;;;24.96;48.13;94687.97;5080569;28;9120;-60
2022/10/30 12:09:20;;;;;;;;;;;;;;;24.95;47.89;94683.69;5086385;28;7933;-60
2022/10/30 12:11:47;;;;;;;;;;;;;;;24.99;47.88;94688.97;5077929;28;8024;-60
2022/10/30 12:14:26;;;;;;;;;;;;;;;25.04;48.04;94688.22;5083647;28;8707;-60
2022/10/30 12:17:00;;;;;;;;;;;;;;;25.04;47.74;94688.22;5082153;28;6908;-60
2022/10/30 12:19:29;;;;;;;;;;;;;;;25.04;47.58;94690.97;5078358;28;7417;-60
2022/10/30 12:21:57;;;;;;;;;;;;;;;25.10;47.20;94688.97;5080894;28;7410;-59
2022/10/30 12:24:33;;;;;;;;;;;;;;;25.11;47.91;94687.72;5084756;28;8555;-60
2022/10/30 12:27:11;;;;;;;;;;;;;;;25.11;47.69;94690.47;5081334;28;7029;-60
2022/10/30 12:29:52;;;;;;;;;;;;;;;25.11;47.15;94679.47;5079240;28;7227;-59
2022/10/30 12:32:31;;;;;;;;;;;;;;;25.11;47.56;94677.47;5079521;28;7310;-60
2022/10/30 12:35:44;;;;;;;;;;;;;;;25.12;47.82;94680.97;5089451;28;9082;-60
2022/10/30 12:39:06;;;;;;;;;;;;;;;25.11;47.64;94669.22;5047447;28;7331;-59
2022/10/30 12:41:41;;;;;;;;;;;;;;;25.13;47.84;94677.72;5008715;28;7171;-60
2022/10/30 12:44:36;;;;;;;;;;;;;;;25.14;47.69;94668.19;5006255;28;9821;-60
2022/10/30 12:47:38;;;;;;;;;;;;;;;25.16;47.07;94673.22;4986968;28;7800;-61
2022/10/30 12:50:18;;;;;;;;;;;;;;;25.14;47.04;94668.19;5007874;28;7222;-60
2022/10/30 12:52:56;;;;;;;;;;;;;;;25.12;47.39;94665.19;4990189;28;7036;-60
2022/10/30 12:55:48;;;;;;;;;;;;;;;25.12;47.72;94669.97;5007121;28;7272;-60
2022/10/30 12:58:59;;;;;;;;;;;;;;;25.13;47.42;94663.94;4988320;28;7248;-60
2022/10/30 13:02:03;;;;;;;;;;;;;;;25.17;47.46;94663.69;4973333;28;7447;-60
2022/10/30 13:04:43;;;;;;;;;;;;;;;25.18;46.94;94659.69;4951906;28;9062;-60
2022/10/30 13:07:40;;;;;;;;;;;;;;;25.20;47.67;94659.94;4970147;28;7291;-60
2022/10/30 13:10:26;;;;;;;;;;;;;;;25.20;48.00;94663.47;4950779;28;7231;-60
2022/10/30 13:13:03;;;;;;;;;;;;;;;25.22;47.63;94657.44;4965387;28;8720;-60
2022/10/30 13:15:55;;;;;;;;;;;;;;;25.23;47.32;94647.91;4977783;28;9468;-60
2022/10/30 13:18:26;;;;;;;;;;;;;;;25.21;47.93;94650.41;5009535;28;7051;-60
2022/10/30 13:21:03;;;;;;;;;;;;;;;25.19;48.19;94648.19;5017664;28;10249;-60
2022/10/30 13:24:01;;;;;;;;;;;;;;;25.20;48.15;94652.44;5003395;28;9205;-60
2022/10/30 13:26:59;;;;;;;;;;;;;;;25.18;47.92;94648.69;4956952;28;7316;-59
2022/10/30 13:29:35;;;;;;;;;;;;;;;25.16;47.16;94654.69;4945745;28;9211;-59
2022/10/30 13:32:01;;;;;;;;;;;;;;;25.15;47.70;94646.94;4945827;28;7157;-60
2022/10/30 13:34:57;;;;;;;;;;;;;;;25.17;46.98;94639.69;4933384;28;7258;-60
2022/10/30 13:37:45;;;;;;;;;;;;;;;25.17;47.08;94645.19;4998028;28;9002;-60
2022/10/30 13:40:47;;;;;;;;;;;;;;;25.16;46.92;94642.94;4992472;28;7170;-60
2022/10/30 13:43:38;;;;;;;;;;;;;;;25.18;47.35;94640.44;4951615;28;7655;-60
2022/10/30 13:46:15;;;;;;;;;;;;;;;25.17;47.00;94642.44;4949717;28;7421;-60
2022/10/30 13:49:11;;;;;;;;;;;;;;;25.21;47.60;94651.19;4948937;28;7053;-60
2022/10/30 13:51:48;;;;;;;;;;;;;;;25.20;47.46;94646.94;4876586;29;7377;-60
2022/10/30 13:54:18;;;;;;;;;;;;;;;25.19;47.65;94639.91;4882896;29;10425;-60
2022/10/30 13:57:10;;;;;;;;;;;;;;;25.21;47.67;94650.41;4879378;29;7102;-60
2022/10/30 13:59:57;;;;;;;;;;;;;;;25.19;47.13;94650.16;4878218;29;9481;-60